KCVO - Corvallis Muni A, Oregon
Updated: Thu, 22-Feb-2024 11:56pm PST
Clear
Clear
 Wind from WNW
Wind: WNW 5 mph , 7 km/h
Temperature: 43°F , 6°C
Wind Chill: 40°F , 4°C
Dew Point: 39°F , 4°C
Humidity: 87%
Barometer: 30.30 inHg , 1026.1 hPa
Clouds: Clear
Visibility: 10 miles , 16 km
2024/02/23 07:56 KCVO 230756Z AUTO 30004KT 10SM CLR 06/04 A3030 RMK AO2 SLP262 T00560044 401500044